sensor_id;sensor_type;location;lat;lon;timestamp;P1;durP1;ratioP1;P2;durP2;ratioP2
3677;SDS011;1855;50.934;6.958;2023-12-20T00:01:36;15.70;;;12.40;;
3677;SDS011;1855;50.934;6.958;2023-12-20T00:04:04;14.65;;;12.57;;
3677;SDS011;1855;50.934;6.958;2023-12-20T00:06:31;14.80;;;12.02;;
3677;SDS011;1855;50.934;6.958;2023-12-20T00:08:58;15.55;;;12.43;;
3677;SDS011;1855;50.934;6.958;2023-12-20T00:11:25;14.93;;;13.23;;
3677;SDS011;1855;50.934;6.958;2023-12-20T00:13:53;16.20;;;13.50;;
3677;SDS011;1855;50.934;6.958;2023-12-20T00:16:20;15.20;;;13.27;;
3677;SDS011;1855;50.934;6.958;2023-12-20T00:18:47;14.02;;;12.20;;
3677;SDS011;1855;50.934;6.958;2023-12-20T00:21:15;15.65;;;12.25;;
3677;SDS011;1855;50.934;6.958;2023-12-20T00:23:42;15.90;;;12.77;;
3677;SDS011;1855;50.934;6.958;2023-12-20T00:26:09;17.20;;;13.47;;
3677;SDS011;1855;50.934;6.958;2023-12-20T00:28:36;13.68;;;12.10;;
3677;SDS011;1855;50.934;6.958;2023-12-20T00:31:03;11.98;;;10.65;;
3677;SDS011;1855;50.934;6.958;2023-12-20T00:33:30;12.80;;;10.27;;
3677;SDS011;1855;50.934;6.958;2023-12-20T00:35:58;13.13;;;11.03;;
3677;SDS011;1855;50.934;6.958;2023-12-20T00:38:26;13.35;;;11.20;;
3677;SDS011;1855;50.934;6.958;2023-12-20T00:40:53;13.60;;;11.10;;
3677;SDS011;1855;50.934;6.958;2023-12-20T00:43:20;13.80;;;11.60;;
3677;SDS011;1855;50.934;6.958;2023-12-20T00:45:47;10.98;;;9.65;;
3677;SDS011;1855;50.934;6.958;2023-12-20T00:48:14;10.68;;;8.65;;
3677;SDS011;1855;50.934;6.958;2023-12-20T00:50:41;9.38;;;7.60;;
3677;SDS011;1855;50.934;6.958;2023-12-20T00:53:08;9.27;;;7.68;;
3677;SDS011;1855;50.934;6.958;2023-12-20T00:55:37;7.63;;;6.70;;
3677;SDS011;1855;50.934;6.958;2023-12-20T00:58:04;9.18;;;7.35;;
3677;SDS011;1855;50.934;6.958;2023-12-20T01:00:31;8.40;;;7.50;;
3677;SDS011;1855;50.934;6.958;2023-12-20T01:02:58;10.18;;;8.70;;
3677;SDS011;1855;50.934;6.958;2023-12-20T01:05:25;11.80;;;8.30;;
3677;SDS011;1855;50.934;6.958;2023-12-20T01:07:52;8.50;;;7.60;;
3677;SDS011;1855;50.934;6.958;2023-12-20T01:10:19;8.60;;;7.10;;
3677;SDS011;1855;50.934;6.958;2023-12-20T01:12:48;8.30;;;7.40;;
3677;SDS011;1855;50.934;6.958;2023-12-20T01:15:15;8.50;;;7.25;;
3677;SDS011;1855;50.934;6.958;2023-12-20T01:17:42;10.20;;;7.80;;
3677;SDS011;1855;50.934;6.958;2023-12-20T01:20:09;9.05;;;7.38;;
3677;SDS011;1855;50.934;6.958;2023-12-20T01:22:36;11.32;;;7.80;;
3677;SDS011;1855;50.934;6.958;2023-12-20T01:25:04;9.95;;;8.18;;
3677;SDS011;1855;50.934;6.958;2023-12-20T01:27:31;11.52;;;8.40;;
3677;SDS011;1855;50.934;6.958;2023-12-20T01:30:00;9.70;;;7.72;;
3677;SDS011;1855;50.934;6.958;2023-12-20T01:32:27;10.80;;;8.00;;
3677;SDS011;1855;50.934;6.958;2023-12-20T01:34:54;13.50;;;8.40;;
3677;SDS011;1855;50.934;6.958;2023-12-20T01:37:21;12.80;;;9.10;;
3677;SDS011;1855;50.934;6.958;2023-12-20T01:39:48;14.20;;;9.50;;
3677;SDS011;1855;50.934;6.958;2023-12-20T01:42:16;12.38;;;9.63;;
3677;SDS011;1855;50.934;6.958;2023-12-20T01:44:43;13.45;;;10.38;;
3677;SDS011;1855;50.934;6.958;2023-12-20T01:47:11;15.38;;;10.10;;
3677;SDS011;1855;50.934;6.958;2023-12-20T01:49:39;14.77;;;10.47;;
3677;SDS011;1855;50.934;6.958;2023-12-20T01:52:06;15.23;;;10.55;;
3677;SDS011;1855;50.934;6.958;2023-12-20T01:54:33;15.40;;;11.13;;
3677;SDS011;1855;50.934;6.958;2023-12-20T01:57:01;17.05;;;11.10;;
3677;SDS011;1855;50.934;6.958;2023-12-20T01:59:28;19.20;;;13.20;;
3677;SDS011;1855;50.934;6.958;2023-12-20T02:01:56;19.75;;;13.73;;
3677;SDS011;1855;50.934;6.958;2023-12-20T02:04:24;17.20;;;13.30;;
3677;SDS011;1855;50.934;6.958;2023-12-20T02:06:52;14.90;;;12.45;;
3677;SDS011;1855;50.934;6.958;2023-12-20T02:09:19;15.98;;;12.45;;
3677;SDS011;1855;50.934;6.958;2023-12-20T02:11:46;16.52;;;12.30;;
3677;SDS011;1855;50.934;6.958;2023-12-20T02:14:13;12.75;;;10.40;;
3677;SDS011;1855;50.934;6.958;2023-12-20T02:16:41;15.23;;;10.25;;
3677;SDS011;1855;50.934;6.958;2023-12-20T02:19:10;12.50;;;9.70;;
3677;SDS011;1855;50.934;6.958;2023-12-20T02:21:41;12.00;;;9.30;;
3677;SDS011;1855;50.934;6.958;2023-12-20T02:24:08;13.38;;;9.30;;
3677;SDS011;1855;50.934;6.958;2023-12-20T02:26:35;12.77;;;8.27;;
3677;SDS011;1855;50.934;6.958;2023-12-20T02:29:02;11.68;;;7.88;;
3677;SDS011;1855;50.934;6.958;2023-12-20T02:31:29;10.57;;;6.47;;
3677;SDS011;1855;50.934;6.958;2023-12-20T02:33:56;12.55;;;6.40;;
3677;SDS011;1855;50.934;6.958;2023-12-20T02:36:23;13.75;;;6.55;;
3677;SDS011;1855;50.934;6.958;2023-12-20T02:38:52;14.13;;;6.47;;
3677;SDS011;1855;50.934;6.958;2023-12-20T02:41:19;11.37;;;7.10;;
3677;SDS011;1855;50.934;6.958;2023-12-20T02:43:46;9.77;;;5.68;;
3677;SDS011;1855;50.934;6.958;2023-12-20T02:46:13;10.10;;;6.20;;
3677;SDS011;1855;50.934;6.958;2023-12-20T02:48:40;9.27;;;4.90;;
3677;SDS011;1855;50.934;6.958;2023-12-20T02:51:08;9.85;;;4.65;;
3677;SDS011;1855;50.934;6.958;2023-12-20T02:53:35;9.63;;;4.40;;
3677;SDS011;1855;50.934;6.958;2023-12-20T02:56:03;8.98;;;4.28;;
3677;SDS011;1855;50.934;6.958;2023-12-20T02:58:31;8.50;;;4.03;;
3677;SDS011;1855;50.934;6.958;2023-12-20T03:00:58;8.93;;;4.10;;
3677;SDS011;1855;50.934;6.958;2023-12-20T03:03:25;8.05;;;3.95;;
3677;SDS011;1855;50.934;6.958;2023-12-20T03:05:52;7.55;;;3.60;;
3677;SDS011;1855;50.934;6.958;2023-12-20T03:08:19;9.52;;;3.70;;
3677;SDS011;1855;50.934;6.958;2023-12-20T03:10:46;7.47;;;3.50;;
3677;SDS011;1855;50.934;6.958;2023-12-20T03:13:14;7.25;;;3.58;;
3677;SDS011;1855;50.934;6.958;2023-12-20T03:15:41;9.98;;;4.20;;
3677;SDS011;1855;50.934;6.958;2023-12-20T03:18:08;9.07;;;3.67;;
3677;SDS011;1855;50.934;6.958;2023-12-20T03:20:35;5.55;;;3.10;;
3677;SDS011;1855;50.934;6.958;2023-12-20T03:23:03;8.15;;;3.70;;
3677;SDS011;1855;50.934;6.958;2023-12-20T03:25:30;7.45;;;3.10;;
3677;SDS011;1855;50.934;6.958;2023-12-20T03:27:57;7.65;;;3.08;;
3677;SDS011;1855;50.934;6.958;2023-12-20T03:30:25;7.43;;;3.40;;
3677;SDS011;1855;50.934;6.958;2023-12-20T03:32:52;8.75;;;2.85;;
3677;SDS011;1855;50.934;6.958;2023-12-20T03:35:19;5.32;;;3.20;;
3677;SDS011;1855;50.934;6.958;2023-12-20T03:37:46;9.43;;;3.10;;
3677;SDS011;1855;50.934;6.958;2023-12-20T03:40:13;6.00;;;2.83;;
3677;SDS011;1855;50.934;6.958;2023-12-20T03:42:40;8.60;;;3.10;;
3677;SDS011;1855;50.934;6.958;2023-12-20T03:45:08;8.40;;;3.77;;
3677;SDS011;1855;50.934;6.958;2023-12-20T03:47:36;7.28;;;2.90;;
3677;SDS011;1855;50.934;6.958;2023-12-20T03:50:04;10.50;;;3.80;;
3677;SDS011;1855;50.934;6.958;2023-12-20T03:52:31;8.55;;;2.88;;
3677;SDS011;1855;50.934;6.958;2023-12-20T03:54:58;6.55;;;3.00;;
3677;SDS011;1855;50.934;6.958;2023-12-20T03:57:25;9.57;;;3.38;;
3677;SDS011;1855;50.934;6.958;2023-12-20T03:59:53;10.23;;;2.80;;
3677;SDS011;1855;50.934;6.958;2023-12-20T04:02:20;8.55;;;3.40;;
3677;SDS011;1855;50.934;6.958;2023-12-20T04:04:48;10.75;;;3.90;;
3677;SDS011;1855;50.934;6.958;2023-12-20T04:07:15;8.98;;;3.10;;
3677;SDS011;1855;50.934;6.958;2023-12-20T04:09:42;9.93;;;3.80;;
3677;SDS011;1855;50.934;6.958;2023-12-20T04:12:09;7.82;;;3.30;;
3677;SDS011;1855;50.934;6.958;2023-12-20T04:14:36;8.70;;;3.50;;
3677;SDS011;1855;50.934;6.958;2023-12-20T04:17:03;8.10;;;3.05;;
3677;SDS011;1855;50.934;6.958;2023-12-20T04:19:30;9.68;;;3.75;;
3677;SDS011;1855;50.934;6.958;2023-12-20T04:21:59;7.10;;;3.20;;
3677;SDS011;1855;50.934;6.958;2023-12-20T04:24:26;6.72;;;2.88;;
3677;SDS011;1855;50.934;6.958;2023-12-20T04:26:53;8.30;;;3.30;;
3677;SDS011;1855;50.934;6.958;2023-12-20T04:29:20;10.20;;;3.80;;
3677;SDS011;1855;50.934;6.958;2023-12-20T04:31:48;10.50;;;3.50;;
3677;SDS011;1855;50.934;6.958;2023-12-20T04:34:16;7.93;;;3.80;;
3677;SDS011;1855;50.934;6.958;2023-12-20T04:36:43;9.25;;;4.20;;
3677;SDS011;1855;50.934;6.958;2023-12-20T04:39:12;9.20;;;3.50;;
3677;SDS011;1855;50.934;6.958;2023-12-20T04:41:40;10.38;;;4.00;;
3677;SDS011;1855;50.934;6.958;2023-12-20T04:44:07;9.98;;;4.00;;
3677;SDS011;1855;50.934;6.958;2023-12-20T04:46:34;7.93;;;4.10;;
3677;SDS011;1855;50.934;6.958;2023-12-20T04:49:01;9.55;;;4.10;;
3677;SDS011;1855;50.934;6.958;2023-12-20T04:51:28;8.63;;;3.67;;
3677;SDS011;1855;50.934;6.958;2023-12-20T04:53:55;8.35;;;4.00;;
3677;SDS011;1855;50.934;6.958;2023-12-20T04:56:24;12.68;;;4.47;;
3677;SDS011;1855;50.934;6.958;2023-12-20T04:58:51;8.68;;;4.20;;
3677;SDS011;1855;50.934;6.958;2023-12-20T05:01:18;10.40;;;4.63;;
3677;SDS011;1855;50.934;6.958;2023-12-20T05:03:45;8.88;;;4.05;;
3677;SDS011;1855;50.934;6.958;2023-12-20T05:06:12;7.97;;;3.95;;
3677;SDS011;1855;50.934;6.958;2023-12-20T05:08:39;10.68;;;5.05;;
3677;SDS011;1855;50.934;6.958;2023-12-20T05:11:06;9.00;;;4.30;;
3677;SDS011;1855;50.934;6.958;2023-12-20T05:13:35;10.95;;;4.60;;
3677;SDS011;1855;50.934;6.958;2023-12-20T05:16:02;9.57;;;4.18;;
3677;SDS011;1855;50.934;6.958;2023-12-20T05:18:30;9.77;;;4.40;;
3677;SDS011;1855;50.934;6.958;2023-12-20T05:20:57;10.90;;;4.50;;
3677;SDS011;1855;50.934;6.958;2023-12-20T05:23:24;9.15;;;4.20;;
3677;SDS011;1855;50.934;6.958;2023-12-20T05:25:51;10.75;;;4.60;;
3677;SDS011;1855;50.934;6.958;2023-12-20T05:28:18;7.45;;;3.70;;
3677;SDS011;1855;50.934;6.958;2023-12-20T05:30:46;7.93;;;4.90;;
3677;SDS011;1855;50.934;6.958;2023-12-20T05:33:14;10.88;;;4.50;;
3677;SDS011;1855;50.934;6.958;2023-12-20T05:35:41;9.57;;;4.90;;
3677;SDS011;1855;50.934;6.958;2023-12-20T05:38:08;7.53;;;4.57;;
3677;SDS011;1855;50.934;6.958;2023-12-20T05:40:35;12.68;;;4.82;;
3677;SDS011;1855;50.934;6.958;2023-12-20T05:43:02;11.27;;;4.60;;
3677;SDS011;1855;50.934;6.958;2023-12-20T05:45:29;9.02;;;4.10;;
3677;SDS011;1855;50.934;6.958;2023-12-20T05:47:57;10.63;;;4.60;;
3677;SDS011;1855;50.934;6.958;2023-12-20T05:50:24;9.20;;;4.23;;
3677;SDS011;1855;50.934;6.958;2023-12-20T05:52:52;9.82;;;4.32;;
3677;SDS011;1855;50.934;6.958;2023-12-20T05:55:19;11.88;;;4.57;;
3677;SDS011;1855;50.934;6.958;2023-12-20T05:57:47;10.68;;;4.40;;
3677;SDS011;1855;50.934;6.958;2023-12-20T06:00:14;10.50;;;4.60;;
3677;SDS011;1855;50.934;6.958;2023-12-20T06:02:42;10.65;;;4.07;;
3677;SDS011;1855;50.934;6.958;2023-12-20T06:05:11;11.15;;;4.38;;
3677;SDS011;1855;50.934;6.958;2023-12-20T06:07:38;9.07;;;4.40;;
3677;SDS011;1855;50.934;6.958;2023-12-20T06:10:05;11.07;;;4.20;;
3677;SDS011;1855;50.934;6.958;2023-12-20T06:12:32;10.55;;;4.10;;
3677;SDS011;1855;50.934;6.958;2023-12-20T06:15:01;9.43;;;4.30;;
3677;SDS011;1855;50.934;6.958;2023-12-20T06:17:28;8.70;;;3.83;;
3677;SDS011;1855;50.934;6.958;2023-12-20T06:19:56;10.57;;;4.27;;
3677;SDS011;1855;50.934;6.958;2023-12-20T06:22:24;9.70;;;4.60;;
3677;SDS011;1855;50.934;6.958;2023-12-20T06:24:51;9.82;;;4.90;;
3677;SDS011;1855;50.934;6.958;2023-12-20T06:27:18;11.98;;;5.50;;
3677;SDS011;1855;50.934;6.958;2023-12-20T06:29:45;11.60;;;5.07;;
3677;SDS011;1855;50.934;6.958;2023-12-20T06:32:13;12.50;;;4.68;;
3677;SDS011;1855;50.934;6.958;2023-12-20T06:34:40;8.27;;;4.70;;
3677;SDS011;1855;50.934;6.958;2023-12-20T06:37:07;10.00;;;4.70;;
3677;SDS011;1855;50.934;6.958;2023-12-20T06:39:35;11.43;;;4.72;;
3677;SDS011;1855;50.934;6.958;2023-12-20T06:42:03;9.48;;;4.95;;
3677;SDS011;1855;50.934;6.958;2023-12-20T06:44:30;10.57;;;4.50;;
3677;SDS011;1855;50.934;6.958;2023-12-20T06:46:57;11.05;;;5.03;;
3677;SDS011;1855;50.934;6.958;2023-12-20T06:49:24;12.30;;;4.70;;
3677;SDS011;1855;50.934;6.958;2023-12-20T06:51:51;11.48;;;4.70;;
3677;SDS011;1855;50.934;6.958;2023-12-20T06:54:18;9.60;;;5.15;;
3677;SDS011;1855;50.934;6.958;2023-12-20T06:56:47;8.82;;;4.20;;
3677;SDS011;1855;50.934;6.958;2023-12-20T06:59:14;9.52;;;3.90;;
3677;SDS011;1855;50.934;6.958;2023-12-20T07:01:41;8.18;;;4.45;;
3677;SDS011;1855;50.934;6.958;2023-12-20T07:04:08;11.38;;;4.70;;
3677;SDS011;1855;50.934;6.958;2023-12-20T07:06:35;7.90;;;4.10;;
3677;SDS011;1855;50.934;6.958;2023-12-20T07:09:03;14.40;;;4.70;;
3677;SDS011;1855;50.934;6.958;2023-12-20T07:11:30;5.75;;;3.47;;
3677;SDS011;1855;50.934;6.958;2023-12-20T07:13:58;9.88;;;4.10;;
3677;SDS011;1855;50.934;6.958;2023-12-20T07:16:26;10.18;;;3.80;;
3677;SDS011;1855;50.934;6.958;2023-12-20T07:18:53;7.35;;;3.58;;
3677;SDS011;1855;50.934;6.958;2023-12-20T07:21:21;10.93;;;3.90;;
3677;SDS011;1855;50.934;6.958;2023-12-20T07:23:48;8.00;;;3.63;;
3677;SDS011;1855;50.934;6.958;2023-12-20T07:26:15;12.05;;;4.10;;
3677;SDS011;1855;50.934;6.958;2023-12-20T07:28:42;10.30;;;4.40;;
3677;SDS011;1855;50.934;6.958;2023-12-20T07:31:11;8.57;;;4.45;;
3677;SDS011;1855;50.934;6.958;2023-12-20T07:33:38;9.23;;;4.47;;
3677;SDS011;1855;50.934;6.958;2023-12-20T07:36:05;10.40;;;4.20;;
3677;SDS011;1855;50.934;6.958;2023-12-20T07:38:32;8.95;;;4.07;;
3677;SDS011;1855;50.934;6.958;2023-12-20T07:40:59;9.25;;;5.03;;
3677;SDS011;1855;50.934;6.958;2023-12-20T07:43:26;9.02;;;4.35;;
3677;SDS011;1855;50.934;6.958;2023-12-20T07:45:53;10.00;;;4.38;;
3677;SDS011;1855;50.934;6.958;2023-12-20T07:48:22;9.45;;;4.50;;
3677;SDS011;1855;50.934;6.958;2023-12-20T07:50:49;10.38;;;4.88;;
3677;SDS011;1855;50.934;6.958;2023-12-20T07:53:17;11.52;;;5.10;;
3677;SDS011;1855;50.934;6.958;2023-12-20T07:55:44;12.27;;;5.13;;
3677;SDS011;1855;50.934;6.958;2023-12-20T07:58:12;12.73;;;5.30;;
3677;SDS011;1855;50.934;6.958;2023-12-20T08:00:39;8.95;;;4.78;;
3677;SDS011;1855;50.934;6.958;2023-12-20T08:03:06;10.20;;;5.30;;
3677;SDS011;1855;50.934;6.958;2023-12-20T08:05:34;8.77;;;4.70;;
3677;SDS011;1855;50.934;6.958;2023-12-20T08:08:02;9.50;;;4.45;;
3677;SDS011;1855;50.934;6.958;2023-12-20T08:10:29;9.88;;;4.63;;
3677;SDS011;1855;50.934;6.958;2023-12-20T08:12:56;10.63;;;4.72;;
3677;SDS011;1855;50.934;6.958;2023-12-20T08:15:23;9.52;;;5.20;;
3677;SDS011;1855;50.934;6.958;2023-12-20T08:17:50;10.80;;;5.15;;
3677;SDS011;1855;50.934;6.958;2023-12-20T08:20:17;11.30;;;5.32;;
3677;SDS011;1855;50.934;6.958;2023-12-20T08:22:45;8.35;;;4.90;;
3677;SDS011;1855;50.934;6.958;2023-12-20T08:25:12;10.05;;;4.82;;
3677;SDS011;1855;50.934;6.958;2023-12-20T08:27:40;8.90;;;4.70;;
3677;SDS011;1855;50.934;6.958;2023-12-20T08:30:08;8.52;;;5.10;;
3677;SDS011;1855;50.934;6.958;2023-12-20T08:32:35;10.48;;;4.72;;
3677;SDS011;1855;50.934;6.958;2023-12-20T08:35:02;10.20;;;5.40;;
3677;SDS011;1855;50.934;6.958;2023-12-20T08:37:29;10.00;;;5.65;;
3677;SDS011;1855;50.934;6.958;2023-12-20T08:39:58;14.40;;;5.40;;
3677;SDS011;1855;50.934;6.958;2023-12-20T08:42:25;9.95;;;5.60;;
3677;SDS011;1855;50.934;6.958;2023-12-20T08:44:56;12.75;;;5.47;;
3677;SDS011;1855;50.934;6.958;2023-12-20T08:47:23;13.33;;;5.63;;
3677;SDS011;1855;50.934;6.958;2023-12-20T08:49:50;11.68;;;4.90;;
3677;SDS011;1855;50.934;6.958;2023-12-20T08:52:21;6.90;;;4.05;;
3677;SDS011;1855;50.934;6.958;2023-12-20T08:54:48;11.97;;;4.30;;
3677;SDS011;1855;50.934;6.958;2023-12-20T08:57:18;10.23;;;4.32;;
3677;SDS011;1855;50.934;6.958;2023-12-20T08:59:45;9.45;;;4.35;;
3677;SDS011;1855;50.934;6.958;2023-12-20T09:02:12;9.73;;;4.90;;
3677;SDS011;1855;50.934;6.958;2023-12-20T09:04:40;9.90;;;4.45;;
3677;SDS011;1855;50.934;6.958;2023-12-20T09:07:07;8.93;;;3.72;;
3677;SDS011;1855;50.934;6.958;2023-12-20T09:09:47;9.82;;;4.22;;
3677;SDS011;1855;50.934;6.958;2023-12-20T09:12:14;8.00;;;4.60;;
3677;SDS011;1855;50.934;6.958;2023-12-20T09:14:42;9.40;;;3.97;;
3677;SDS011;1855;50.934;6.958;2023-12-20T09:17:09;16.42;;;4.40;;
3677;SDS011;1855;50.934;6.958;2023-12-20T09:19:37;9.05;;;4.40;;
3677;SDS011;1855;50.934;6.958;2023-12-20T09:22:04;9.00;;;4.20;;
3677;SDS011;1855;50.934;6.958;2023-12-20T09:24:31;8.88;;;3.83;;
3677;SDS011;1855;50.934;6.958;2023-12-20T09:26:58;9.37;;;4.23;;
3677;SDS011;1855;50.934;6.958;2023-12-20T09:29:25;11.85;;;4.15;;
3677;SDS011;1855;50.934;6.958;2023-12-20T09:31:54;9.25;;;3.70;;
3677;SDS011;1855;50.934;6.958;2023-12-20T09:34:22;8.85;;;4.32;;
3677;SDS011;1855;50.934;6.958;2023-12-20T09:36:49;10.13;;;4.40;;
3677;SDS011;1855;50.934;6.958;2023-12-20T09:39:16;9.18;;;4.00;;
3677;SDS011;1855;50.934;6.958;2023-12-20T09:41:45;10.45;;;4.40;;
3677;SDS011;1855;50.934;6.958;2023-12-20T09:44:16;8.70;;;4.00;;
3677;SDS011;1855;50.934;6.958;2023-12-20T09:46:44;11.30;;;4.32;;
3677;SDS011;1855;50.934;6.958;2023-12-20T09:49:12;8.55;;;4.47;;
3677;SDS011;1855;50.934;6.958;2023-12-20T09:51:40;10.02;;;4.20;;
3677;SDS011;1855;50.934;6.958;2023-12-20T09:54:07;10.50;;;4.60;;
3677;SDS011;1855;50.934;6.958;2023-12-20T09:56:34;10.10;;;4.00;;
3677;SDS011;1855;50.934;6.958;2023-12-20T09:59:02;9.57;;;3.92;;
3677;SDS011;1855;50.934;6.958;2023-12-20T10:01:29;11.32;;;4.60;;
3677;SDS011;1855;50.934;6.958;2023-12-20T10:03:57;12.85;;;4.63;;
3677;SDS011;1855;50.934;6.958;2023-12-20T10:06:26;6.63;;;3.27;;
3677;SDS011;1855;50.934;6.958;2023-12-20T10:08:53;10.07;;;4.10;;
3677;SDS011;1855;50.934;6.958;2023-12-20T10:11:20;8.45;;;3.80;;
3677;SDS011;1855;50.934;6.958;2023-12-20T10:13:47;10.13;;;3.88;;
3677;SDS011;1855;50.934;6.958;2023-12-20T10:16:14;7.38;;;3.40;;
3677;SDS011;1855;50.934;6.958;2023-12-20T10:18:42;8.00;;;3.70;;
3677;SDS011;1855;50.934;6.958;2023-12-20T10:21:09;10.65;;;3.60;;
3677;SDS011;1855;50.934;6.958;2023-12-20T10:23:38;8.25;;;3.47;;
3677;SDS011;1855;50.934;6.958;2023-12-20T10:26:05;8.73;;;3.70;;
3677;SDS011;1855;50.934;6.958;2023-12-20T10:28:33;8.80;;;3.60;;
3677;SDS011;1855;50.934;6.958;2023-12-20T10:31:00;6.50;;;3.70;;
3677;SDS011;1855;50.934;6.958;2023-12-20T10:33:28;8.75;;;3.80;;
3677;SDS011;1855;50.934;6.958;2023-12-20T10:35:55;8.43;;;3.30;;
3677;SDS011;1855;50.934;6.958;2023-12-20T10:38:22;8.10;;;3.22;;
3677;SDS011;1855;50.934;6.958;2023-12-20T10:40:51;8.02;;;3.60;;
3677;SDS011;1855;50.934;6.958;2023-12-20T10:43:21;8.57;;;4.18;;
3677;SDS011;1855;50.934;6.958;2023-12-20T10:45:48;6.75;;;3.60;;
3677;SDS011;1855;50.934;6.958;2023-12-20T10:48:15;6.93;;;3.70;;
3677;SDS011;1855;50.934;6.958;2023-12-20T10:50:43;7.40;;;3.67;;
3677;SDS011;1855;50.934;6.958;2023-12-20T10:53:11;9.18;;;3.47;;
3677;SDS011;1855;50.934;6.958;2023-12-20T10:55:40;7.82;;;2.92;;
3677;SDS011;1855;50.934;6.958;2023-12-20T10:58:08;6.63;;;3.30;;
3677;SDS011;1855;50.934;6.958;2023-12-20T11:00:39;9.05;;;3.30;;
3677;SDS011;1855;50.934;6.958;2023-12-20T11:03:08;9.45;;;4.00;;
3677;SDS011;1855;50.934;6.958;2023-12-20T11:05:36;10.18;;;3.80;;
3677;SDS011;1855;50.934;6.958;2023-12-20T11:08:07;7.78;;;3.50;;
3677;SDS011;1855;50.934;6.958;2023-12-20T11:10:38;6.85;;;3.47;;
3677;SDS011;1855;50.934;6.958;2023-12-20T11:13:12;10.70;;;3.70;;
3677;SDS011;1855;50.934;6.958;2023-12-20T11:15:43;9.63;;;4.07;;
3677;SDS011;1855;50.934;6.958;2023-12-20T11:18:11;7.55;;;3.30;;
3677;SDS011;1855;50.934;6.958;2023-12-20T11:20:39;6.82;;;3.40;;
3677;SDS011;1855;50.934;6.958;2023-12-20T11:23:06;9.00;;;3.30;;
3677;SDS011;1855;50.934;6.958;2023-12-20T11:25:45;7.68;;;3.47;;
3677;SDS011;1855;50.934;6.958;2023-12-20T11:28:14;6.05;;;3.30;;
3677;SDS011;1855;50.934;6.958;2023-12-20T11:30:46;5.60;;;3.08;;
3677;SDS011;1855;50.934;6.958;2023-12-20T11:33:13;7.72;;;3.53;;
3677;SDS011;1855;50.934;6.958;2023-12-20T11:35:41;9.63;;;3.50;;
3677;SDS011;1855;50.934;6.958;2023-12-20T11:38:08;7.38;;;3.40;;
3677;SDS011;1855;50.934;6.958;2023-12-20T11:40:36;7.60;;;3.10;;
3677;SDS011;1855;50.934;6.958;2023-12-20T11:43:03;8.23;;;3.22;;
3677;SDS011;1855;50.934;6.958;2023-12-20T11:45:32;6.43;;;3.13;;
3677;SDS011;1855;50.934;6.958;2023-12-20T11:48:00;6.53;;;3.07;;
3677;SDS011;1855;50.934;6.958;2023-12-20T11:50:28;7.18;;;3.22;;
3677;SDS011;1855;50.934;6.958;2023-12-20T11:52:55;5.45;;;3.13;;
3677;SDS011;1855;50.934;6.958;2023-12-20T11:55:23;7.75;;;3.30;;
3677;SDS011;1855;50.934;6.958;2023-12-20T11:57:50;9.38;;;3.10;;
3677;SDS011;1855;50.934;6.958;2023-12-20T12:00:17;7.28;;;3.45;;
3677;SDS011;1855;50.934;6.958;2023-12-20T12:02:56;7.95;;;3.65;;
3677;SDS011;1855;50.934;6.958;2023-12-20T12:05:23;7.63;;;3.17;;
3677;SDS011;1855;50.934;6.958;2023-12-20T12:07:50;8.73;;;2.80;;
3677;SDS011;1855;50.934;6.958;2023-12-20T12:10:18;8.75;;;3.90;;
3677;SDS011;1855;50.934;6.958;2023-12-20T12:12:45;7.35;;;3.22;;
3677;SDS011;1855;50.934;6.958;2023-12-20T12:15:12;7.60;;;3.20;;
3677;SDS011;1855;50.934;6.958;2023-12-20T12:17:40;6.53;;;3.42;;
3677;SDS011;1855;50.934;6.958;2023-12-20T12:20:08;7.13;;;3.70;;
3677;SDS011;1855;50.934;6.958;2023-12-20T12:22:36;7.47;;;3.40;;
3677;SDS011;1855;50.934;6.958;2023-12-20T12:25:09;6.63;;;3.10;;
3677;SDS011;1855;50.934;6.958;2023-12-20T12:27:37;5.35;;;3.40;;
3677;SDS011;1855;50.934;6.958;2023-12-20T12:30:04;8.18;;;3.30;;
3677;SDS011;1855;50.934;6.958;2023-12-20T12:32:33;9.90;;;4.05;;
3677;SDS011;1855;50.934;6.958;2023-12-20T12:35:00;8.27;;;3.53;;
3677;SDS011;1855;50.934;6.958;2023-12-20T12:37:29;8.18;;;3.53;;
3677;SDS011;1855;50.934;6.958;2023-12-20T12:39:56;8.77;;;3.70;;
3677;SDS011;1855;50.934;6.958;2023-12-20T12:42:23;7.20;;;3.80;;
3677;SDS011;1855;50.934;6.958;2023-12-20T12:44:53;7.03;;;3.30;;
3677;SDS011;1855;50.934;6.958;2023-12-20T12:47:21;10.25;;;4.57;;
3677;SDS011;1855;50.934;6.958;2023-12-20T12:49:49;11.82;;;4.40;;
3677;SDS011;1855;50.934;6.958;2023-12-20T12:52:18;6.32;;;3.70;;
3677;SDS011;1855;50.934;6.958;2023-12-20T12:54:46;7.40;;;3.60;;
3677;SDS011;1855;50.934;6.958;2023-12-20T12:57:13;8.00;;;4.10;;
3677;SDS011;1855;50.934;6.958;2023-12-20T12:59:41;7.95;;;3.70;;
3677;SDS011;1855;50.934;6.958;2023-12-20T13:02:09;7.83;;;4.10;;
3677;SDS011;1855;50.934;6.958;2023-12-20T13:04:36;10.40;;;3.60;;
3677;SDS011;1855;50.934;6.958;2023-12-20T13:07:03;8.10;;;3.70;;
3677;SDS011;1855;50.934;6.958;2023-12-20T13:09:30;11.82;;;4.70;;
3677;SDS011;1855;50.934;6.958;2023-12-20T13:11:59;10.43;;;4.45;;
3677;SDS011;1855;50.934;6.958;2023-12-20T13:14:28;8.40;;;4.40;;
3677;SDS011;1855;50.934;6.958;2023-12-20T13:16:55;8.65;;;4.25;;
3677;SDS011;1855;50.934;6.958;2023-12-20T13:19:23;9.40;;;4.37;;
3677;SDS011;1855;50.934;6.958;2023-12-20T13:21:50;9.95;;;4.68;;
3677;SDS011;1855;50.934;6.958;2023-12-20T13:24:17;9.23;;;4.40;;
3677;SDS011;1855;50.934;6.958;2023-12-20T13:26:44;8.70;;;4.13;;
3677;SDS011;1855;50.934;6.958;2023-12-20T13:29:12;8.10;;;4.60;;
3677;SDS011;1855;50.934;6.958;2023-12-20T13:31:39;8.77;;;3.65;;
3677;SDS011;1855;50.934;6.958;2023-12-20T13:34:07;7.45;;;3.65;;
3677;SDS011;1855;50.934;6.958;2023-12-20T13:36:34;8.75;;;4.32;;
3677;SDS011;1855;50.934;6.958;2023-12-20T13:39:01;9.85;;;3.80;;
3677;SDS011;1855;50.934;6.958;2023-12-20T13:41:29;8.90;;;3.60;;
3677;SDS011;1855;50.934;6.958;2023-12-20T13:43:56;7.55;;;4.20;;
3677;SDS011;1855;50.934;6.958;2023-12-20T13:46:25;11.07;;;4.22;;
3677;SDS011;1855;50.934;6.958;2023-12-20T13:48:52;7.00;;;3.50;;
3677;SDS011;1855;50.934;6.958;2023-12-20T13:51:19;7.28;;;3.60;;
3677;SDS011;1855;50.934;6.958;2023-12-20T13:53:47;9.90;;;4.03;;
3677;SDS011;1855;50.934;6.958;2023-12-20T13:56:14;7.93;;;4.05;;
3677;SDS011;1855;50.934;6.958;2023-12-20T13:58:41;8.77;;;3.92;;
3677;SDS011;1855;50.934;6.958;2023-12-20T14:03:38;7.43;;;3.78;;
3677;SDS011;1855;50.934;6.958;2023-12-20T14:06:06;6.20;;;3.45;;
3677;SDS011;1855;50.934;6.958;2023-12-20T14:08:33;7.03;;;3.40;;
3677;SDS011;1855;50.934;6.958;2023-12-20T14:11:01;8.43;;;3.43;;
3677;SDS011;1855;50.934;6.958;2023-12-20T14:13:28;7.60;;;4.22;;
3677;SDS011;1855;50.934;6.958;2023-12-20T14:15:56;8.20;;;3.28;;
3677;SDS011;1855;50.934;6.958;2023-12-20T14:18:25;6.45;;;3.40;;
3677;SDS011;1855;50.934;6.958;2023-12-20T14:20:53;7.88;;;3.60;;
3677;SDS011;1855;50.934;6.958;2023-12-20T14:23:21;8.75;;;4.00;;
3677;SDS011;1855;50.934;6.958;2023-12-20T14:25:48;7.60;;;3.60;;
3677;SDS011;1855;50.934;6.958;2023-12-20T14:28:15;7.45;;;2.92;;
3677;SDS011;1855;50.934;6.958;2023-12-20T14:30:42;6.95;;;3.30;;
3677;SDS011;1855;50.934;6.958;2023-12-20T14:33:09;6.70;;;3.17;;
3677;SDS011;1855;50.934;6.958;2023-12-20T14:35:36;7.60;;;3.10;;
3677;SDS011;1855;50.934;6.958;2023-12-20T14:38:05;5.40;;;3.05;;
3677;SDS011;1855;50.934;6.958;2023-12-20T14:40:32;5.72;;;3.20;;
3677;SDS011;1855;50.934;6.958;2023-12-20T14:42:59;8.23;;;3.08;;
3677;SDS011;1855;50.934;6.958;2023-12-20T14:45:29;7.10;;;2.92;;
3677;SDS011;1855;50.934;6.958;2023-12-20T14:47:56;6.57;;;3.28;;
3677;SDS011;1855;50.934;6.958;2023-12-20T14:50:23;5.95;;;3.10;;
3677;SDS011;1855;50.934;6.958;2023-12-20T14:52:51;6.90;;;3.22;;
3677;SDS011;1855;50.934;6.958;2023-12-20T14:55:21;8.82;;;3.47;;
3677;SDS011;1855;50.934;6.958;2023-12-20T14:57:48;8.10;;;3.10;;
3677;SDS011;1855;50.934;6.958;2023-12-20T15:00:15;7.37;;;3.20;;
3677;SDS011;1855;50.934;6.958;2023-12-20T15:02:44;5.10;;;3.10;;
3677;SDS011;1855;50.934;6.958;2023-12-20T15:05:11;10.00;;;3.40;;
3677;SDS011;1855;50.934;6.958;2023-12-20T15:07:39;5.72;;;2.83;;
3677;SDS011;1855;50.934;6.958;2023-12-20T15:10:06;7.85;;;3.00;;
3677;SDS011;1855;50.934;6.958;2023-12-20T15:12:35;7.93;;;3.15;;
3677;SDS011;1855;50.934;6.958;2023-12-20T15:15:02;7.70;;;3.70;;